Climatologie mensuelle pour novembre 2014

Valeurs journalières de 0h à 0h
mois : année :
Jour Température Vent Pluie Humidité Pression Ensoleillement (% max)
min moy max Vent moyen (rafale max) Secteur
1 3.3 °C 8.1 °C 15.1 °C 0.6 km/h ( 9.7 km/h ) SE 0.4 mm 93 % 1023.4 hPa 3:10 h   (31%)
2 2 °C 7.5 °C 15 °C 0.8 km/h ( 17.7 km/h ) SE 0 mm 93 % 1019.1 hPa 4:00 h   (40%)
3 3.4 °C 7.9 °C 13.3 °C 0.7 km/h ( 11.3 km/h ) SE 0.6 mm 95 % 1008.3 hPa 0:00 h   (0%)
4 5.8 °C 8.9 °C 11.7 °C 0.8 km/h ( 20.9 km/h ) SE 19 mm 96 % 994.6 hPa 0:00 h   (0%)
5 5.4 °C 6.2 °C 7.9 °C 0.8 km/h ( 20.9 km/h ) ESE 28 mm 98 % 1003.3 hPa 0:00 h   (0%)
6 5 °C 6.9 °C 8.9 °C 2.1 km/h ( 20.9 km/h ) NE 0 mm 93 % 1011.5 hPa 0:00 h   (0%)
7 1.4 °C 6.2 °C 11.3 °C 1.1 km/h ( 19.3 km/h ) SE 1.2 mm 92 % 1011.6 hPa 1:50 h   (19%)
8 0.4 °C 5.1 °C 10.9 °C 1.5 km/h ( 16.1 km/h ) SE 0.2 mm 94 % 1012.8 hPa 0:50 h   (9%)
9 0.9 °C 6.2 °C 10.3 °C 0.6 km/h ( 9.7 km/h ) SE 3.8 mm 96 % 1009.3 hPa 0:00 h   (0%)
10 7.2 °C 8.7 °C 10.3 °C 0 km/h ( 6.4 km/h ) SE 3.4 mm 99 % 1011.5 hPa 0:00 h   (0%)
11 8.2 °C 8.8 °C 9.8 °C 1.2 km/h ( 17.7 km/h ) ESE 0.2 mm 96 % 1005.5 hPa 0:00 h   (0%)
12 7.8 °C 8.7 °C 9.9 °C 0.2 km/h ( 8 km/h ) SE 9.6 mm 98 % 1004.9 hPa 0:00 h   (0%)
13 5.4 °C 8 °C 12.1 °C 0.3 km/h ( 9.7 km/h ) NO 1 mm 96 % 1010.9 hPa 0:30 h   (5%)
14 5.7 °C 8 °C 10.8 °C 0.9 km/h ( 14.5 km/h ) SE 0.2 mm 95 % 1008.1 hPa 0:00 h   (0%)
15 6.7 °C 7.9 °C 9 °C 1 km/h ( 20.9 km/h ) SSO 42.4 mm 98 % 1003.2 hPa 0:00 h   (0%)
16 6.4 °C 8.5 °C 12 °C 4.8 km/h ( 30.6 km/h ) S 4.4 mm 87 % 1003.3 hPa 0:30 h   (5%)
17 4.4 °C 6.3 °C 7.8 °C 1.2 km/h ( 32.2 km/h ) SE 19.8 mm 96 % 1004.3 hPa 0:00 h   (0%)
18 3.9 °C 6.1 °C 9.1 °C 1.6 km/h ( 22.5 km/h ) OSO 1 mm 95 % 1008.8 hPa 0:00 h   (0%)
19 0.8 °C 5.7 °C 10.7 °C 0.4 km/h ( 9.7 km/h ) NO 0.6 mm 93 % 1018.3 hPa 0:50 h   (9%)
20 0.8 °C 4.2 °C 9.9 °C 0.5 km/h ( 9.7 km/h ) SE 0 mm 93 % 1023.5 hPa 2:00 h   (22%)
21 2.2 °C 5.1 °C 9.1 °C 0.4 km/h ( 8 km/h ) SE 0 mm 96 % 1021.7 hPa 0:00 h   (0%)
22 2.2 °C 6.1 °C 7.8 °C 0.3 km/h ( 6.4 km/h ) SE 0 mm 99 % 1021.3 hPa 0:00 h   (0%)
23 6.8 °C 7.4 °C 8.2 °C 0.3 km/h ( 12.9 km/h ) SO 0 mm 99 % 1022 hPa 0:00 h   (0%)
24 7.1 °C 8.4 °C 10.6 °C 0.8 km/h ( 17.7 km/h ) SE 0 mm 99 % 1021.6 hPa 0:00 h   (0%)
25 7.7 °C 9.4 °C 10.6 °C 2 km/h ( 12.9 km/h ) NNE 0 mm 96 % 1018.8 hPa 0:00 h   (0%)
26 8.4 °C 9.4 °C 10.8 °C 0 km/h ( 8 km/h ) NE 0 mm 96 % 1013.3 hPa 0:00 h   (0%)
27 9 °C 9.7 °C 10.9 °C 2.2 km/h ( 19.3 km/h ) NE 0 mm 94 % 1007.2 hPa 0:00 h   (0%)
28 7 °C 8.1 °C 9.2 °C 6.1 km/h ( 22.5 km/h ) N 0 mm 93 % 1005.2 hPa 0:00 h   (0%)
29 5.5 °C 6.3 °C 7.1 °C 2.6 km/h ( 16.1 km/h ) NE 0 mm 95 % 1010 hPa 0:00 h   (0%)
30 4.9 °C 5.9 °C 6.8 °C 1.8 km/h ( 16.1 km/h ) NE 0 mm 95 % 1009.2 hPa 0:00 h   (0%)
0.4 °C 7.3 °C 15.1 °C 1.3 km/h (32.2 km/h) 135.8 mm 95 % 1011.5 hPa 13:00 h

Température moyenne mensuelle : 7.3 °C
Moyenne des Tn : 4.9 °C
Tn mensuelle : 0.4 °C
Moyenne des Tx : 10.2 °C
Tx mensuelle : 15.1 °C

Vent moyen pour le mois : 1.3 km/h de secteur
Rafale maxi : 32.2 km/h

Pluviometrie mensuelle : 135.8 mm avec un maximum journalier de 42.4 mm

Nombre de jours :

  • avec gelée : 0
  • avec forte gelée (<=-5): 0
  • sans dégel : 0
  • avec chaleur (>=30): 0
  • avec canicule (>=35): 0
  • avec pluie : 17
  • avec plus de 1mm : 11
  • avec plus de 5mm : 5
  • avec plus de 10mm : 4